Time;durP1;ratioP1;P1;durP2;ratioP2;P2;SDS_P1;SDS_P2;PMS_P1;PMS_P2;Temp;Humidity;BMP_temperature;BMP_pressure;BME280_temperature;BME280_humidity;BME280_pressure;Samples;Min_cycle;Max_cycle;Signal;HPM_P1;HPM_P2
2021/09/19 00:00:33;;;;;;;;;;;;;;;11.17;87.13;96949.58;116748;1180;59520;-66
2021/09/19 00:03:10;;;;;;;;;;;;;;;11.16;86.19;96942.70;116804;1177;59860;-68
2021/09/19 00:05:40;;;;;;;;;;;;;;;11.17;85.63;96942.44;116923;1177;70924;-66
2021/09/19 00:08:11;;;;;;;;;;;;;;;11.18;85.70;96944.30;116938;1177;68110;-65
2021/09/19 00:10:41;;;;;;;;;;;;;;;11.18;85.61;96946.02;116865;1177;68712;-66
2021/09/19 00:13:11;;;;;;;;;;;;;;;11.19;86.62;96940.04;117049;1177;59534;-65
2021/09/19 00:15:40;;;;;;;;;;;;;;;11.19;87.14;96944.59;116871;1177;59519;-67
2021/09/19 00:18:10;;;;;;;;;;;;;;;11.19;85.97;96942.43;116996;1177;71359;-67
2021/09/19 00:20:39;;;;;;;;;;;;;;;11.20;85.20;96941.52;116806;1177;68407;-67
2021/09/19 00:23:09;;;;;;;;;;;;;;;11.22;84.23;96941.19;116906;1177;68952;-67
2021/09/19 00:25:39;;;;;;;;;;;;;;;11.24;84.04;96936.51;116860;1177;59609;-67
2021/09/19 00:28:08;;;;;;;;;;;;;;;11.25;84.71;96936.45;116957;1177;59484;-65
2021/09/19 00:30:37;;;;;;;;;;;;;;;11.20;85.05;96934.30;116730;1179;71210;-64
2021/09/19 00:33:08;;;;;;;;;;;;;;;11.18;85.75;96940.67;116890;1177;69448;-67
2021/09/19 00:35:38;;;;;;;;;;;;;;;11.15;85.80;96944.88;116950;1177;69252;-65
2021/09/19 00:38:07;;;;;;;;;;;;;;;11.14;85.21;96938.88;116926;1177;59560;-66
2021/09/19 00:40:37;;;;;;;;;;;;;;;11.14;87.29;96939.06;116971;1177;59519;-66
2021/09/19 00:43:07;;;;;;;;;;;;;;;11.14;86.52;96940.14;116970;1177;70753;-66
2021/09/19 00:45:36;;;;;;;;;;;;;;;11.14;85.99;96940.09;116953;1177;68318;-67
2021/09/19 00:48:06;;;;;;;;;;;;;;;11.15;86.29;96940.49;116917;1177;69349;-65
2021/09/19 00:50:36;;;;;;;;;;;;;;;11.14;88.18;96939.61;116934;1177;59488;-66
2021/09/19 00:53:05;;;;;;;;;;;;;;;11.12;87.67;96940.23;116920;1177;59494;-65
2021/09/19 00:55:35;;;;;;;;;;;;;;;11.14;86.67;96944.80;116955;1177;71391;-66
2021/09/19 00:58:10;;;;;;;;;;;;;;;11.16;85.94;96942.92;116922;1178;68447;-64
2021/09/19 01:00:42;;;;;;;;;;;;;;;11.19;84.98;96943.55;117014;1177;68439;-65
2021/09/19 01:03:11;;;;;;;;;;;;;;;11.21;87.10;96939.18;116894;1177;59494;-65
2021/09/19 01:05:43;;;;;;;;;;;;;;;11.22;87.33;96941.52;116860;1177;59514;-66
2021/09/19 01:08:14;;;;;;;;;;;;;;;11.25;86.73;96938.87;116969;1177;71232;-66
2021/09/19 01:10:45;;;;;;;;;;;;;;;11.26;86.81;96935.80;117084;1178;69221;-66
2021/09/19 01:13:15;;;;;;;;;;;;;;;11.28;86.60;96925.20;116940;1177;69198;-67
2021/09/19 01:15:45;;;;;;;;;;;;;;;11.32;84.99;96910.34;116808;1180;59516;-67
2021/09/19 01:18:17;;;;;;;;;;;;;;;11.33;85.67;96911.53;116957;1177;59520;-64
2021/09/19 01:20:47;;;;;;;;;;;;;;;11.30;86.56;96912.96;116931;1177;71391;-67
2021/09/19 01:23:17;;;;;;;;;;;;;;;11.28;86.55;96911.94;116995;1176;69198;-66
2021/09/19 01:25:49;;;;;;;;;;;;;;;11.28;86.62;96916.82;116870;1177;68287;-66
2021/09/19 01:28:18;;;;;;;;;;;;;;;11.24;87.85;96923.42;116933;1177;59540;-66
2021/09/19 01:30:48;;;;;;;;;;;;;;;11.23;86.18;96929.41;116913;1177;59529;-66
2021/09/19 01:33:19;;;;;;;;;;;;;;;11.22;85.39;96931.61;116890;1177;71387;-66
2021/09/19 01:35:49;;;;;;;;;;;;;;;11.21;85.37;96929.59;116958;1177;68437;-66
2021/09/19 01:38:23;;;;;;;;;;;;;;;11.21;85.85;96924.52;116903;1177;69363;-66
2021/09/19 01:40:52;;;;;;;;;;;;;;;11.20;86.66;96923.20;116807;1177;59537;-65
2021/09/19 01:43:22;;;;;;;;;;;;;;;11.22;86.49;96923.92;117017;1176;59530;-67
2021/09/19 01:45:52;;;;;;;;;;;;;;;11.24;85.81;96923.45;116843;1178;71397;-66
2021/09/19 01:48:21;;;;;;;;;;;;;;;11.26;85.59;96924.45;116753;1180;68316;-66
2021/09/19 01:50:51;;;;;;;;;;;;;;;11.30;84.88;96916.63;116713;1179;69523;-67
2021/09/19 01:53:21;;;;;;;;;;;;;;;11.33;85.10;96916.08;116765;1180;59559;-66
2021/09/19 01:55:51;;;;;;;;;;;;;;;11.34;85.47;96912.80;116770;1177;59526;-67
2021/09/19 01:58:21;;;;;;;;;;;;;;;11.34;85.43;96905.67;116726;1178;70437;-65
2021/09/19 02:00:58;;;;;;;;;;;;;;;11.33;86.31;96911.71;116773;1178;68536;-67
2021/09/19 02:03:27;;;;;;;;;;;;;;;11.31;86.41;96919.33;116827;1179;69052;-65
2021/09/19 02:05:57;;;;;;;;;;;;;;;11.30;85.54;96921.86;116739;1180;59560;-65
2021/09/19 02:08:28;;;;;;;;;;;;;;;11.29;85.93;96925.61;116833;1177;59522;-65
2021/09/19 02:10:58;;;;;;;;;;;;;;;11.29;86.14;96926.16;116790;1178;71347;-64
2021/09/19 02:13:27;;;;;;;;;;;;;;;11.29;86.09;96924.07;116780;1179;69150;-65
2021/09/19 02:15:57;;;;;;;;;;;;;;;11.30;86.03;96922.20;116778;1178;69143;-68
2021/09/19 02:18:27;;;;;;;;;;;;;;;11.29;87.71;96924.60;116736;1179;59519;-66
2021/09/19 02:20:57;;;;;;;;;;;;;;;11.29;87.09;96920.56;116806;1177;59615;-64
2021/09/19 02:23:26;;;;;;;;;;;;;;;11.31;86.10;96920.55;116749;1179;70603;-66
2021/09/19 02:25:56;;;;;;;;;;;;;;;11.33;85.70;96922.83;116776;1179;68059;-65
2021/09/19 02:28:26;;;;;;;;;;;;;;;11.33;85.86;96918.45;116781;1179;68458;-65
2021/09/19 02:30:56;;;;;;;;;;;;;;;11.35;86.51;96917.27;116732;1180;59625;-66
2021/09/19 02:33:27;;;;;;;;;;;;;;;11.35;85.93;96917.23;116751;1180;59448;-66
2021/09/19 02:35:56;;;;;;;;;;;;;;;11.37;85.78;96917.27;116715;1179;71665;-66
2021/09/19 02:38:26;;;;;;;;;;;;;;;11.38;85.74;96911.11;116706;1179;69183;-65
2021/09/19 02:40:55;;;;;;;;;;;;;;;11.39;86.29;96902.84;116918;1177;69060;-64
2021/09/19 02:43:25;;;;;;;;;;;;;;;11.39;85.95;96897.52;116797;1178;59504;-66
2021/09/19 02:45:55;;;;;;;;;;;;;;;11.41;85.52;96891.30;116753;1178;59491;-65
2021/09/19 02:48:25;;;;;;;;;;;;;;;11.43;84.63;96890.08;116925;1177;70580;-67
2021/09/19 02:50:56;;;;;;;;;;;;;;;11.43;85.56;96889.59;116806;1177;68970;-65
2021/09/19 02:53:26;;;;;;;;;;;;;;;11.42;85.87;96887.18;116881;1177;68422;-63
2021/09/19 02:55:55;;;;;;;;;;;;;;;11.42;87.22;96886.29;116798;1177;59520;-66
2021/09/19 02:58:25;;;;;;;;;;;;;;;11.41;87.88;96884.84;116783;1177;59533;-67
2021/09/19 03:00:54;;;;;;;;;;;;;;;11.39;88.65;96883.11;116827;1177;70407;-66
2021/09/19 03:03:24;;;;;;;;;;;;;;;11.34;88.89;96882.25;116767;1178;68451;-66
2021/09/19 03:05:55;;;;;;;;;;;;;;;11.32;88.73;96880.59;116805;1179;69014;-65
2021/09/19 03:08:25;;;;;;;;;;;;;;;11.31;88.36;96879.94;116883;1177;59523;-68
2021/09/19 03:10:56;;;;;;;;;;;;;;;11.31;88.26;96867.02;116930;1177;59534;-65
2021/09/19 03:13:25;;;;;;;;;;;;;;;11.30;88.53;96863.94;116716;1179;71344;-65
2021/09/19 03:15:55;;;;;;;;;;;;;;;11.31;88.08;96865.12;116788;1177;68411;-65
2021/09/19 03:18:25;;;;;;;;;;;;;;;11.32;88.54;96871.15;116805;1178;67456;-66
2021/09/19 03:20:54;;;;;;;;;;;;;;;11.31;88.25;96877.80;116801;1177;59536;-65
2021/09/19 03:23:24;;;;;;;;;;;;;;;11.32;87.57;96877.52;116855;1177;59533;-65
2021/09/19 03:25:53;;;;;;;;;;;;;;;11.34;87.04;96886.50;116846;1177;70586;-66
2021/09/19 03:28:23;;;;;;;;;;;;;;;11.34;86.69;96888.92;116830;1177;69200;-67
2021/09/19 03:30:53;;;;;;;;;;;;;;;11.33;87.62;96886.73;116823;1177;69168;-66
2021/09/19 03:33:23;;;;;;;;;;;;;;;11.32;86.96;96883.80;116830;1177;59913;-66
2021/09/19 03:35:52;;;;;;;;;;;;;;;11.34;86.71;96873.08;116724;1179;59599;-65
2021/09/19 03:38:22;;;;;;;;;;;;;;;11.33;87.35;96876.08;116864;1177;70620;-66
2021/09/19 03:40:51;;;;;;;;;;;;;;;11.34;86.51;96874.77;116888;1178;68028;-67
2021/09/19 03:43:22;;;;;;;;;;;;;;;11.36;86.81;96873.77;116817;1177;69145;-67
2021/09/19 03:45:51;;;;;;;;;;;;;;;11.36;86.74;96874.82;116791;1177;59536;-66
2021/09/19 03:48:21;;;;;;;;;;;;;;;11.36;86.58;96875.46;116843;1178;59522;-66
2021/09/19 03:50:50;;;;;;;;;;;;;;;11.37;86.31;96874.70;116878;1177;70467;-67
2021/09/19 03:53:20;;;;;;;;;;;;;;;11.38;85.90;96875.85;116836;1177;69451;-64
2021/09/19 03:55:50;;;;;;;;;;;;;;;11.36;87.22;96871.65;116851;1177;68426;-67
2021/09/19 03:58:20;;;;;;;;;;;;;;;11.33;87.12;96875.75;116784;1178;59542;-65
2021/09/19 04:00:50;;;;;;;;;;;;;;;11.35;86.26;96874.55;116797;1177;59549;-66
2021/09/19 04:03:19;;;;;;;;;;;;;;;11.36;86.00;96877.77;116802;1179;71396;-66
2021/09/19 04:05:48;;;;;;;;;;;;;;;11.37;85.87;96876.78;116850;1177;68321;-66
2021/09/19 04:08:18;;;;;;;;;;;;;;;11.38;85.66;96874.06;116879;1177;68410;-66
2021/09/19 04:10:47;;;;;;;;;;;;;;;11.40;85.41;96877.96;116868;1177;59528;-66
2021/09/19 04:13:17;;;;;;;;;;;;;;;11.41;85.04;96882.02;116853;1177;59520;-65
2021/09/19 04:15:46;;;;;;;;;;;;;;;11.42;85.44;96882.13;116870;1177;70388;-65
2021/09/19 04:18:17;;;;;;;;;;;;;;;11.43;85.20;96885.55;116730;1179;69300;-66
2021/09/19 04:20:46;;;;;;;;;;;;;;;11.44;84.62;96888.02;116845;1177;69073;-67
2021/09/19 04:23:15;;;;;;;;;;;;;;;11.45;84.50;96892.69;116728;1179;59548;-65
2021/09/19 04:25:45;;;;;;;;;;;;;;;11.45;84.62;96892.97;116905;1177;59571;-64
2021/09/19 04:28:15;;;;;;;;;;;;;;;11.46;84.40;96891.52;116834;1177;71376;-64
2021/09/19 04:30:44;;;;;;;;;;;;;;;11.46;85.55;96894.14;116869;1177;69224;-65
2021/09/19 04:33:14;;;;;;;;;;;;;;;11.45;85.51;96896.33;116725;1179;68567;-65
2021/09/19 04:35:44;;;;;;;;;;;;;;;11.46;84.45;96898.86;116774;1178;59516;-65
2021/09/19 04:38:13;;;;;;;;;;;;;;;11.47;84.28;96900.20;116858;1177;59522;-66
2021/09/19 04:40:42;;;;;;;;;;;;;;;11.48;84.27;96898.91;116752;1177;71371;-64
2021/09/19 04:43:13;;;;;;;;;;;;;;;11.49;84.18;96897.56;116835;1177;68801;-66
2021/09/19 04:45:42;;;;;;;;;;;;;;;11.51;84.38;96891.32;116959;1177;68439;-65
2021/09/19 04:48:12;;;;;;;;;;;;;;;11.54;84.18;96896.43;116808;1178;59545;-67
2021/09/19 04:50:41;;;;;;;;;;;;;;;11.55;84.27;96895.49;116774;1179;59580;-66
2021/09/19 04:53:11;;;;;;;;;;;;;;;11.56;84.42;96898.73;116845;1177;70769;-66
2021/09/19 04:55:40;;;;;;;;;;;;;;;11.57;84.42;96895.00;116854;1177;68368;-65
2021/09/19 04:58:10;;;;;;;;;;;;;;;11.57;84.57;96892.88;116884;1177;69460;-65
2021/09/19 05:00:39;;;;;;;;;;;;;;;11.59;85.35;96896.76;116817;1178;59549;-65
2021/09/19 05:03:09;;;;;;;;;;;;;;;11.59;85.52;96899.88;116741;1179;59552;-66
2021/09/19 05:05:39;;;;;;;;;;;;;;;11.60;86.70;96903.09;116830;1177;70791;-65
2021/09/19 05:08:08;;;;;;;;;;;;;;;11.62;86.07;96898.56;116853;1178;68442;-64
2021/09/19 05:10:38;;;;;;;;;;;;;;;11.64;86.22;96899.08;116966;1177;69072;-65
2021/09/19 05:13:07;;;;;;;;;;;;;;;11.66;86.28;96900.50;116922;1177;59516;-64
2021/09/19 05:15:36;;;;;;;;;;;;;;;11.69;85.99;96904.45;116783;1177;59525;-67
2021/09/19 05:18:05;;;;;;;;;;;;;;;11.71;86.03;96901.79;116854;1177;70740;-66
2021/09/19 05:20:34;;;;;;;;;;;;;;;11.73;85.74;96900.38;116739;1178;68489;-67
2021/09/19 05:23:04;;;;;;;;;;;;;;;11.75;86.26;96899.74;116813;1177;68454;-67
2021/09/19 05:25:33;;;;;;;;;;;;;;;11.78;85.96;96900.17;116828;1178;59519;-65
2021/09/19 05:28:02;;;;;;;;;;;;;;;11.83;85.07;96903.98;116836;1177;59554;-66
2021/09/19 05:30:32;;;;;;;;;;;;;;;11.87;85.41;96898.91;116751;1178;71390;-66
2021/09/19 05:33:01;;;;;;;;;;;;;;;11.90;86.01;96902.12;116839;1177;68474;-67
2021/09/19 05:35:30;;;;;;;;;;;;;;;11.95;85.54;96902.91;116763;1178;68105;-65
2021/09/19 05:38:03;;;;;;;;;;;;;;;12.02;85.00;96899.89;116768;1178;59532;-65
2021/09/19 05:40:33;;;;;;;;;;;;;;;12.09;84.69;96901.70;116908;1177;59532;-65
2021/09/19 05:43:03;;;;;;;;;;;;;;;12.16;85.34;96900.73;116864;1177;71302;-65
2021/09/19 05:45:33;;;;;;;;;;;;;;;12.21;84.86;96900.09;116838;1177;69131;-64
2021/09/19 05:48:02;;;;;;;;;;;;;;;12.30;84.45;96893.25;116783;1177;68945;-65
2021/09/19 05:50:32;;;;;;;;;;;;;;;12.40;83.95;96895.14;116766;1177;59616;-68
2021/09/19 05:53:04;;;;;;;;;;;;;;;12.51;84.11;96893.29;116812;1177;59535;-65
2021/09/19 05:55:44;;;;;;;;;;;;;;;12.65;83.73;96892.16;116764;1177;70449;-67
2021/09/19 05:58:19;;;;;;;;;;;;;;;13.00;83.34;96893.44;116752;1177;67891;-69
2021/09/19 06:00:48;;;;;;;;;;;;;;;13.45;83.18;96892.39;116749;1177;68447;-70
2021/09/19 06:03:17;;;;;;;;;;;;;;;14.26;82.40;96892.54;116900;1177;59577;-67
2021/09/19 06:05:47;;;;;;;;;;;;;;;15.10;80.16;96891.58;116869;1177;59606;-64
2021/09/19 06:08:17;;;;;;;;;;;;;;;15.71;77.40;96882.48;116777;1177;71477;-65
2021/09/19 06:10:46;;;;;;;;;;;;;;;16.23;73.03;96880.96;116919;1177;69198;-67
2021/09/19 06:13:15;;;;;;;;;;;;;;;16.50;73.76;96880.41;116950;1177;69356;-64
2021/09/19 06:15:44;;;;;;;;;;;;;;;16.79;69.95;96883.88;116851;1177;59535;-66
2021/09/19 06:18:13;;;;;;;;;;;;;;;16.84;68.93;96884.83;116845;1177;59528;-66
2021/09/19 06:20:42;;;;;;;;;;;;;;;16.71;66.98;96880.69;116730;1178;70360;-66
2021/09/19 06:23:12;;;;;;;;;;;;;;;16.85;69.72;96887.45;116933;1177;68534;-69
2021/09/19 06:25:41;;;;;;;;;;;;;;;16.91;65.19;96885.01;117020;1177;69367;-66
2021/09/19 06:28:09;;;;;;;;;;;;;;;17.07;65.61;96889.20;117077;1177;59537;-67
2021/09/19 06:30:38;;;;;;;;;;;;;;;16.64;65.15;96890.38;116828;1180;59529;-67
2021/09/19 06:33:08;;;;;;;;;;;;;;;16.74;65.28;96891.11;116931;1177;70614;-66
2021/09/19 06:35:37;;;;;;;;;;;;;;;16.61;64.00;96894.38;116955;1176;68332;-69
2021/09/19 06:38:06;;;;;;;;;;;;;;;17.26;64.53;96891.67;116855;1177;69241;-64
2021/09/19 06:40:41;;;;;;;;;;;;;;;17.76;62.06;96893.80;116790;1177;59519;-66
2021/09/19 06:43:10;;;;;;;;;;;;;;;18.25;60.62;96895.08;116805;1177;59567;-66
2021/09/19 06:45:39;;;;;;;;;;;;;;;18.35;57.83;96896.06;116748;1178;70718;-68
2021/09/19 06:48:08;;;;;;;;;;;;;;;18.78;58.04;96896.27;116764;1177;69198;-67
2021/09/19 06:50:38;;;;;;;;;;;;;;;18.88;57.38;96898.18;116737;1179;68360;-67
2021/09/19 06:53:08;;;;;;;;;;;;;;;18.47;56.47;96894.87;116777;1179;59519;-68
2021/09/19 06:55:37;;;;;;;;;;;;;;;19.02;56.88;96899.43;116788;1177;59537;-64
2021/09/19 06:58:06;;;;;;;;;;;;;;;19.35;55.81;96902.55;116697;1178;71439;-69
2021/09/19 07:00:35;;;;;;;;;;;;;;;19.26;55.56;96907.20;116810;1178;68494;-67
2021/09/19 07:03:04;;;;;;;;;;;;;;;19.49;54.65;96906.50;116706;1177;68502;-69
2021/09/19 07:05:34;;;;;;;;;;;;;;;18.60;54.25;96908.77;116777;1177;59542;-69
2021/09/19 07:08:04;;;;;;;;;;;;;;;18.16;55.62;96914.78;116868;1177;59539;-67
2021/09/19 07:10:33;;;;;;;;;;;;;;;17.48;57.44;96919.73;116786;1178;70806;-68
2021/09/19 07:13:01;;;;;;;;;;;;;;;16.93;59.29;96920.29;116907;1177;69227;-65
2021/09/19 07:15:31;;;;;;;;;;;;;;;16.48;61.35;96920.25;116824;1179;68652;-67
2021/09/19 07:17:59;;;;;;;;;;;;;;;16.59;61.19;96916.78;116849;1179;59539;-67
2021/09/19 07:20:29;;;;;;;;;;;;;;;16.70;61.84;96914.55;116746;1179;59527;-65
2021/09/19 07:22:58;;;;;;;;;;;;;;;16.87;61.35;96913.01;116765;1179;71560;-65
2021/09/19 07:25:27;;;;;;;;;;;;;;;16.45;61.14;96917.39;116854;1177;69288;-66
2021/09/19 07:27:56;;;;;;;;;;;;;;;16.32;62.14;96916.66;116793;1180;69307;-65
2021/09/19 07:30:25;;;;;;;;;;;;;;;16.51;62.75;96920.09;116804;1177;59542;-65
2021/09/19 07:32:55;;;;;;;;;;;;;;;16.64;62.83;96920.86;116797;1178;59548;-67
2021/09/19 07:35:23;;;;;;;;;;;;;;;16.86;62.22;96917.66;116791;1177;71400;-65
2021/09/19 07:37:53;;;;;;;;;;;;;;;17.32;60.68;96914.09;116755;1179;69194;-65
2021/09/19 07:40:22;;;;;;;;;;;;;;;17.87;59.27;96911.65;116759;1179;68473;-65
2021/09/19 07:42:52;;;;;;;;;;;;;;;18.23;58.10;96913.83;116750;1180;59521;-66
2021/09/19 07:45:21;;;;;;;;;;;;;;;18.45;56.84;96914.93;116817;1177;59516;-65
2021/09/19 07:47:50;;;;;;;;;;;;;;;18.70;54.54;96922.85;116818;1177;71161;-65
2021/09/19 07:50:20;;;;;;;;;;;;;;;19.08;54.27;96927.70;116906;1177;69842;-65
2021/09/19 07:52:49;;;;;;;;;;;;;;;19.53;53.58;96927.49;116897;1177;68568;-65
2021/09/19 07:55:18;;;;;;;;;;;;;;;19.70;52.35;96928.14;117019;1177;59529;-65
2021/09/19 07:57:47;;;;;;;;;;;;;;;19.88;52.63;96928.96;116871;1177;59543;-65
2021/09/19 08:00:16;;;;;;;;;;;;;;;20.22;52.02;96923.55;116821;1177;71264;-66
2021/09/19 08:02:45;;;;;;;;;;;;;;;19.88;50.30;96923.31;116856;1177;68601;-65
2021/09/19 08:05:15;;;;;;;;;;;;;;;19.24;51.16;96927.59;116790;1177;69281;-66
2021/09/19 08:07:44;;;;;;;;;;;;;;;19.14;52.23;96930.04;116791;1177;59516;-67
2021/09/19 08:10:17;;;;;;;;;;;;;;;19.30;53.05;96932.11;116837;1177;59512;-66
2021/09/19 08:12:47;;;;;;;;;;;;;;;19.58;50.86;96936.55;116886;1177;70195;-68
2021/09/19 08:15:17;;;;;;;;;;;;;;;19.31;50.65;96933.82;116902;1178;68379;-65
2021/09/19 08:17:46;;;;;;;;;;;;;;;19.34;52.21;96936.86;116898;1177;68850;-66
2021/09/19 08:20:16;;;;;;;;;;;;;;;19.67;52.03;96936.77;116904;1177;59530;-65
2021/09/19 08:22:46;;;;;;;;;;;;;;;19.91;50.30;96935.36;116887;1177;59513;-65
2021/09/19 08:25:16;;;;;;;;;;;;;;;20.29;50.55;96936.59;117034;1177;70606;-65
2021/09/19 08:27:45;;;;;;;;;;;;;;;20.82;50.93;96935.17;116993;1177;69346;-66
2021/09/19 08:30:14;;;;;;;;;;;;;;;21.01;49.87;96941.23;117016;1177;69225;-66
2021/09/19 08:32:43;;;;;;;;;;;;;;;21.04;50.13;96941.88;116982;1177;59526;-67
2021/09/19 08:35:13;;;;;;;;;;;;;;;21.30;49.57;96946.08;116962;1177;59512;-67
2021/09/19 08:37:42;;;;;;;;;;;;;;;21.62;49.56;96945.15;116906;1177;70350;-65
2021/09/19 08:40:12;;;;;;;;;;;;;;;22.21;47.43;96945.91;116996;1177;68480;-66
2021/09/19 08:42:41;;;;;;;;;;;;;;;22.26;47.69;96946.92;116928;1177;69036;-67
2021/09/19 08:45:11;;;;;;;;;;;;;;;22.13;46.74;96945.95;116888;1177;59535;-66
2021/09/19 08:47:41;;;;;;;;;;;;;;;21.82;46.96;96947.73;116796;1179;59549;-67
2021/09/19 08:50:10;;;;;;;;;;;;;;;21.61;47.59;96951.48;116787;1178;71398;-67
2021/09/19 08:52:39;;;;;;;;;;;;;;;21.47;48.23;96950.06;116823;1177;68552;-67
2021/09/19 08:55:10;;;;;;;;;;;;;;;21.51;48.40;96949.96;116817;1177;67599;-65
2021/09/19 08:57:40;;;;;;;;;;;;;;;21.64;47.63;96947.41;116766;1177;59528;-67
2021/09/19 09:00:11;;;;;;;;;;;;;;;21.88;46.30;96944.39;116834;1177;59548;-68
2021/09/19 09:02:47;;;;;;;;;;;;;;;21.93;46.11;96942.88;116738;1177;70914;-66
2021/09/19 09:05:23;;;;;;;;;;;;;;;21.89;46.30;96936.11;116814;1177;69222;-65
2021/09/19 09:07:56;;;;;;;;;;;;;;;21.79;45.94;96940.33;116844;1177;67452;-68
2021/09/19 09:10:30;;;;;;;;;;;;;;;21.11;46.59;96947.38;116884;1178;60001;-66
2021/09/19 09:13:02;;;;;;;;;;;;;;;20.91;47.22;96945.93;116922;1177;59553;-67
2021/09/19 09:15:39;;;;;;;;;;;;;;;20.00;48.22;96955.45;117004;1177;72172;-65
2021/09/19 09:18:11;;;;;;;;;;;;;;;19.78;48.84;96952.62;116974;1177;69105;-66
2021/09/19 09:20:47;;;;;;;;;;;;;;;19.26;48.34;96948.39;116965;1177;69009;-65
2021/09/19 09:23:23;;;;;;;;;;;;;;;19.04;49.40;96945.64;116932;1177;59546;-65
2021/09/19 09:26:07;;;;;;;;;;;;;;;18.97;50.31;96947.63;116852;1178;59556;-66
2021/09/19 09:28:39;;;;;;;;;;;;;;;18.54;50.07;96941.73;116892;1177;71400;-65
2021/09/19 09:31:09;;;;;;;;;;;;;;;18.23;50.18;96942.23;116803;1177;68309;-65
2021/09/19 09:33:38;;;;;;;;;;;;;;;17.81;51.84;96943.13;116874;1177;68567;-66
2021/09/19 09:36:08;;;;;;;;;;;;;;;17.80;52.11;96942.80;116881;1179;59539;-65
2021/09/19 09:38:38;;;;;;;;;;;;;;;18.10;52.17;96944.23;116784;1178;59606;-66
2021/09/19 09:41:08;;;;;;;;;;;;;;;18.49;52.28;96944.12;116752;1179;71478;-67
2021/09/19 09:43:37;;;;;;;;;;;;;;;18.99;50.83;96947.95;117003;1177;69157;-67
2021/09/19 09:46:10;;;;;;;;;;;;;;;19.36;48.16;96948.35;116976;1177;68322;-65
2021/09/19 09:48:39;;;;;;;;;;;;;;;19.75;48.19;96945.36;116987;1177;59502;-65
2021/09/19 09:51:19;;;;;;;;;;;;;;;19.54;46.66;96944.08;116928;1177;59507;-69
2021/09/19 09:53:53;;;;;;;;;;;;;;;19.90;47.35;96936.49;116792;1178;71492;-68
2021/09/19 09:56:22;;;;;;;;;;;;;;;20.19;47.65;96938.04;116826;1177;67957;-66
2021/09/19 09:58:52;;;;;;;;;;;;;;;20.61;47.22;96933.88;116896;1177;68498;-67
2021/09/19 10:01:21;;;;;;;;;;;;;;;21.03;45.97;96937.77;116912;1177;59547;-69
2021/09/19 10:03:51;;;;;;;;;;;;;;;21.18;44.28;96937.52;116891;1177;59472;-69
2021/09/19 10:06:20;;;;;;;;;;;;;;;21.20;43.09;96935.83;116905;1177;70814;-66
2021/09/19 10:08:50;;;;;;;;;;;;;;;21.31;42.98;96929.73;116877;1177;68287;-66
2021/09/19 10:11:19;;;;;;;;;;;;;;;21.31;43.64;96931.94;116908;1177;68512;-67
2021/09/19 10:13:49;;;;;;;;;;;;;;;20.66;44.81;96923.92;116966;1177;59510;-68
2021/09/19 10:16:18;;;;;;;;;;;;;;;21.07;45.35;96922.56;116924;1177;59545;-66
2021/09/19 10:18:51;;;;;;;;;;;;;;;21.55;44.28;96926.71;116848;1177;70428;-66
2021/09/19 10:21:24;;;;;;;;;;;;;;;21.93;42.87;96929.01;116831;1177;69066;-69
2021/09/19 10:23:55;;;;;;;;;;;;;;;22.03;40.68;96927.18;116798;1178;69198;-65
2021/09/19 10:26:30;;;;;;;;;;;;;;;21.92;41.50;96928.06;116905;1177;59546;-67
2021/09/19 10:28:59;;;;;;;;;;;;;;;21.83;41.62;96928.73;116978;1178;59567;-69
2021/09/19 10:31:32;;;;;;;;;;;;;;;21.58;42.05;96929.56;117044;1177;71175;-69
2021/09/19 10:34:06;;;;;;;;;;;;;;;21.06;42.64;96925.88;117022;1177;69247;-69
2021/09/19 10:36:37;;;;;;;;;;;;;;;20.96;42.78;96924.45;116898;1177;69059;-68
2021/09/19 10:39:14;;;;;;;;;;;;;;;21.18;43.60;96927.71;117054;1176;59532;-68
2021/09/19 10:42:02;;;;;;;;;;;;;;;21.48;44.19;96927.65;116983;1177;59444;-65
2021/09/19 10:44:34;;;;;;;;;;;;;;;21.80;44.30;96923.75;117037;1177;71149;-67
2021/09/19 10:47:07;;;;;;;;;;;;;;;22.17;43.58;96927.60;116977;1177;68195;-68
2021/09/19 10:49:36;;;;;;;;;;;;;;;22.75;42.88;96927.23;116841;1178;69210;-66
2021/09/19 10:52:04;;;;;;;;;;;;;;;22.93;41.81;96931.25;117058;1177;59529;-66
2021/09/19 10:54:48;;;;;;;;;;;;;;;22.80;42.16;96928.48;117009;1177;59452;-69
2021/09/19 10:57:32;;;;;;;;;;;;;;;22.60;42.79;96922.70;116954;1177;71312;-66
2021/09/19 11:00:07;;;;;;;;;;;;;;;22.59;42.81;96919.48;117050;1177;69110;-65
2021/09/19 11:02:36;;;;;;;;;;;;;;;22.41;43.07;96923.90;117009;1176;69941;-68
2021/09/19 11:05:24;;;;;;;;;;;;;;;22.26;43.35;96926.98;117021;1177;59486;-68
2021/09/19 11:08:16;;;;;;;;;;;;;;;22.01;43.61;96921.61;116913;1177;59880;-66
2021/09/19 11:10:45;;;;;;;;;;;;;;;21.80;43.74;96919.05;116954;1177;71427;-65
2021/09/19 11:13:20;;;;;;;;;;;;;;;21.82;44.03;96919.80;117040;1177;68505;-66
2021/09/19 11:16:01;;;;;;;;;;;;;;;21.70;43.93;96921.77;117078;1177;69401;-66
2021/09/19 11:18:32;;;;;;;;;;;;;;;21.43;44.94;96916.34;116885;1177;59561;-65
2021/09/19 11:21:10;;;;;;;;;;;;;;;21.15;45.43;96914.67;116831;1177;59517;-66
2021/09/19 11:23:44;;;;;;;;;;;;;;;20.58;46.50;96914.04;116873;1177;71385;-66
2021/09/19 11:26:18;;;;;;;;;;;;;;;20.35;47.17;96913.77;116985;1177;69074;-66
2021/09/19 11:28:48;;;;;;;;;;;;;;;20.05;47.81;96916.17;116961;1177;68485;-66
2021/09/19 11:31:18;;;;;;;;;;;;;;;19.77;48.08;96916.31;116914;1177;59530;-67
2021/09/19 11:33:48;;;;;;;;;;;;;;;19.48;48.50;96920.61;116962;1177;59557;-66
2021/09/19 11:36:18;;;;;;;;;;;;;;;19.18;49.43;96923.64;116952;1177;71413;-65
2021/09/19 11:38:48;;;;;;;;;;;;;;;18.91;50.38;96925.03;116890;1177;68498;-65
2021/09/19 11:41:19;;;;;;;;;;;;;;;18.54;51.83;96922.66;116775;1177;68503;-68
2021/09/19 11:43:49;;;;;;;;;;;;;;;18.35;52.34;96917.66;117058;1177;59493;-66
2021/09/19 11:46:20;;;;;;;;;;;;;;;18.20;52.98;96918.05;116947;1177;59544;-66
2021/09/19 11:48:49;;;;;;;;;;;;;;;18.02;53.47;96925.21;116945;1177;70617;-65
2021/09/19 11:51:18;;;;;;;;;;;;;;;17.82;54.53;96925.50;116929;1177;68499;-65
2021/09/19 11:53:49;;;;;;;;;;;;;;;17.66;54.74;96922.09;116813;1177;68491;-67
2021/09/19 11:56:21;;;;;;;;;;;;;;;17.53;55.71;96924.34;116883;1177;59914;-67
2021/09/19 11:58:51;;;;;;;;;;;;;;;17.39;56.66;96917.98;117052;1177;59517;-67
2021/09/19 12:01:24;;;;;;;;;;;;;;;17.22;57.89;96923.81;116820;1177;70608;-65
2021/09/19 12:04:02;;;;;;;;;;;;;;;17.16;57.37;96925.55;116922;1177;69025;-66
2021/09/19 12:06:32;;;;;;;;;;;;;;;17.11;57.49;96927.30;116890;1177;69029;-70
2021/09/19 12:09:01;;;;;;;;;;;;;;;17.05;57.52;96930.20;116896;1177;59489;-66
2021/09/19 12:11:57;;;;;;;;;;;;;;;17.04;57.89;96922.23;116903;1177;59535;-68
2021/09/19 12:14:27;;;;;;;;;;;;;;;17.03;58.25;96916.01;116902;1177;71524;-68
2021/09/19 12:17:00;;;;;;;;;;;;;;;17.03;58.41;96915.11;116993;1177;69409;-67
2021/09/19 12:19:31;;;;;;;;;;;;;;;17.07;58.26;96913.63;117010;1177;68276;-67
2021/09/19 12:22:02;;;;;;;;;;;;;;;17.15;57.89;96912.64;116846;1178;59526;-67
2021/09/19 12:24:33;;;;;;;;;;;;;;;17.32;57.91;96911.70;116744;1179;59593;-67
2021/09/19 12:27:18;;;;;;;;;;;;;;;17.54;57.58;96916.33;117134;1177;71202;-68
2021/09/19 12:30:06;;;;;;;;;;;;;;;17.84;57.34;96915.67;116960;1177;69077;-68
2021/09/19 12:32:39;;;;;;;;;;;;;;;18.11;56.21;96914.98;117004;1177;68661;-67
2021/09/19 12:35:13;;;;;;;;;;;;;;;18.30;55.36;96913.11;116942;1177;59944;-66
2021/09/19 12:37:44;;;;;;;;;;;;;;;18.39;54.90;96917.86;116949;1177;59599;-64
2021/09/19 12:40:15;;;;;;;;;;;;;;;18.43;54.64;96917.59;116875;1177;70710;-66
2021/09/19 12:42:44;;;;;;;;;;;;;;;18.49;54.67;96918.70;116862;1177;68237;-68
2021/09/19 12:45:14;;;;;;;;;;;;;;;18.53;54.58;96916.64;116876;1177;68799;-68
2021/09/19 12:47:45;;;;;;;;;;;;;;;18.58;54.21;96924.20;116999;1177;59530;-65
2021/09/19 12:50:16;;;;;;;;;;;;;;;18.59;53.35;96923.53;116823;1177;59498;-67
2021/09/19 12:52:47;;;;;;;;;;;;;;;18.53;53.86;96932.36;116825;1177;71085;-65